sensor_id;sensor_type;location;lat;lon;timestamp;temperature;humidity
43581;DHT22;29175;51.030;4.606;2022-10-24T00:02:07;16.10;99.90
43581;DHT22;29175;51.030;4.606;2022-10-24T00:04:38;16.10;99.90
43581;DHT22;29175;51.030;4.606;2022-10-24T00:07:04;16.20;99.90
43581;DHT22;29175;51.030;4.606;2022-10-24T00:09:30;16.20;99.90
43581;DHT22;29175;51.030;4.606;2022-10-24T00:11:56;16.20;99.90
43581;DHT22;29175;51.030;4.606;2022-10-24T00:14:21;16.30;99.90
43581;DHT22;29175;51.030;4.606;2022-10-24T00:16:47;16.20;99.90
43581;DHT22;29175;51.030;4.606;2022-10-24T00:19:13;16.30;99.90
43581;DHT22;29175;51.030;4.606;2022-10-24T00:21:38;16.20;99.90
43581;DHT22;29175;51.030;4.606;2022-10-24T00:24:05;16.20;99.90
43581;DHT22;29175;51.030;4.606;2022-10-24T00:26:31;16.30;99.90
43581;DHT22;29175;51.030;4.606;2022-10-24T00:28:57;16.70;99.90
43581;DHT22;29175;51.030;4.606;2022-10-24T00:31:22;16.90;99.90
43581;DHT22;29175;51.030;4.606;2022-10-24T00:33:49;17.00;99.90
43581;DHT22;29175;51.030;4.606;2022-10-24T00:36:29;16.90;99.90
43581;DHT22;29175;51.030;4.606;2022-10-24T00:38:55;17.10;99.90
43581;DHT22;29175;51.030;4.606;2022-10-24T00:41:31;17.10;99.90
43581;DHT22;29175;51.030;4.606;2022-10-24T00:44:23;17.40;99.90
43581;DHT22;29175;51.030;4.606;2022-10-24T00:46:54;17.50;99.90
43581;DHT22;29175;51.030;4.606;2022-10-24T00:49:25;17.40;99.90
43581;DHT22;29175;51.030;4.606;2022-10-24T00:51:54;17.20;99.90
43581;DHT22;29175;51.030;4.606;2022-10-24T00:54:21;17.30;99.90
43581;DHT22;29175;51.030;4.606;2022-10-24T00:56:58;17.50;99.90
43581;DHT22;29175;51.030;4.606;2022-10-24T00:59:25;17.90;99.90
43581;DHT22;29175;51.030;4.606;2022-10-24T01:01:51;17.90;99.90
43581;DHT22;29175;51.030;4.606;2022-10-24T01:04:16;17.90;99.90
43581;DHT22;29175;51.030;4.606;2022-10-24T01:17:35;17.90;99.90
43581;DHT22;29175;51.030;4.606;2022-10-24T01:25:58;17.60;99.90
43581;DHT22;29175;51.030;4.606;2022-10-24T01:28:56;17.60;99.90
43581;DHT22;29175;51.030;4.606;2022-10-24T01:31:34;17.90;99.90
43581;DHT22;29175;51.030;4.606;2022-10-24T01:34:14;17.90;99.90
43581;DHT22;29175;51.030;4.606;2022-10-24T01:37:05;17.70;99.90
43581;DHT22;29175;51.030;4.606;2022-10-24T01:39:39;17.70;99.90
43581;DHT22;29175;51.030;4.606;2022-10-24T01:42:08;17.70;99.90
43581;DHT22;29175;51.030;4.606;2022-10-24T01:44:40;17.60;99.90
43581;DHT22;29175;51.030;4.606;2022-10-24T01:47:35;17.80;99.90
43581;DHT22;29175;51.030;4.606;2022-10-24T01:50:05;17.90;99.90
43581;DHT22;29175;51.030;4.606;2022-10-24T01:52:35;17.60;99.90
43581;DHT22;29175;51.030;4.606;2022-10-24T01:55:02;17.70;99.90
43581;DHT22;29175;51.030;4.606;2022-10-24T01:57:30;18.00;99.90
43581;DHT22;29175;51.030;4.606;2022-10-24T01:59:57;18.20;99.90
43581;DHT22;29175;51.030;4.606;2022-10-24T02:02:53;17.80;99.90
43581;DHT22;29175;51.030;4.606;2022-10-24T02:05:21;17.70;99.90
43581;DHT22;29175;51.030;4.606;2022-10-24T02:07:52;17.80;99.90
43581;DHT22;29175;51.030;4.606;2022-10-24T02:10:43;17.80;99.90
43581;DHT22;29175;51.030;4.606;2022-10-24T02:13:13;17.80;99.90
43581;DHT22;29175;51.030;4.606;2022-10-24T02:15:47;17.80;99.90
43581;DHT22;29175;51.030;4.606;2022-10-24T02:18:14;17.80;99.90
43581;DHT22;29175;51.030;4.606;2022-10-24T02:23:56;17.80;99.90
43581;DHT22;29175;51.030;4.606;2022-10-24T02:32:12;17.80;99.90
43581;DHT22;29175;51.030;4.606;2022-10-24T02:34:40;17.50;99.90
43581;DHT22;29175;51.030;4.606;2022-10-24T02:37:08;17.50;99.90
43581;DHT22;29175;51.030;4.606;2022-10-24T02:39:35;17.60;99.90
43581;DHT22;29175;51.030;4.606;2022-10-24T02:42:03;18.00;99.90
43581;DHT22;29175;51.030;4.606;2022-10-24T02:44:30;18.00;99.90
43581;DHT22;29175;51.030;4.606;2022-10-24T02:47:00;18.10;99.90
43581;DHT22;29175;51.030;4.606;2022-10-24T02:49:27;18.20;99.90
43581;DHT22;29175;51.030;4.606;2022-10-24T02:51:53;18.00;99.90
43581;DHT22;29175;51.030;4.606;2022-10-24T02:54:19;18.20;99.90
43581;DHT22;29175;51.030;4.606;2022-10-24T02:56:49;18.10;99.90
43581;DHT22;29175;51.030;4.606;2022-10-24T02:59:17;17.80;99.90
43581;DHT22;29175;51.030;4.606;2022-10-24T03:01:42;17.90;99.90
43581;DHT22;29175;51.030;4.606;2022-10-24T03:04:08;18.00;99.90
43581;DHT22;29175;51.030;4.606;2022-10-24T03:06:34;18.00;99.90
43581;DHT22;29175;51.030;4.606;2022-10-24T03:09:00;18.00;99.90
43581;DHT22;29175;51.030;4.606;2022-10-24T03:11:26;18.10;99.90
43581;DHT22;29175;51.030;4.606;2022-10-24T03:13:51;18.30;99.90
43581;DHT22;29175;51.030;4.606;2022-10-24T03:16:17;18.20;99.90
43581;DHT22;29175;51.030;4.606;2022-10-24T03:18:43;18.30;99.90
43581;DHT22;29175;51.030;4.606;2022-10-24T03:21:08;18.50;99.90
43581;DHT22;29175;51.030;4.606;2022-10-24T03:23:34;18.40;99.90
43581;DHT22;29175;51.030;4.606;2022-10-24T03:26:00;18.30;99.90
43581;DHT22;29175;51.030;4.606;2022-10-24T03:28:26;18.50;99.90
43581;DHT22;29175;51.030;4.606;2022-10-24T03:30:52;18.60;99.90
43581;DHT22;29175;51.030;4.606;2022-10-24T03:33:18;18.00;99.90
43581;DHT22;29175;51.030;4.606;2022-10-24T03:35:44;18.20;99.90
43581;DHT22;29175;51.030;4.606;2022-10-24T03:38:10;18.10;99.90
43581;DHT22;29175;51.030;4.606;2022-10-24T03:40:36;17.90;99.90
43581;DHT22;29175;51.030;4.606;2022-10-24T03:43:02;18.20;99.90
43581;DHT22;29175;51.030;4.606;2022-10-24T03:45:28;18.50;99.90
43581;DHT22;29175;51.030;4.606;2022-10-24T03:47:54;18.40;99.90
43581;DHT22;29175;51.030;4.606;2022-10-24T03:50:20;18.30;99.90
43581;DHT22;29175;51.030;4.606;2022-10-24T03:52:46;18.10;99.90
43581;DHT22;29175;51.030;4.606;2022-10-24T03:55:12;18.00;99.90
43581;DHT22;29175;51.030;4.606;2022-10-24T03:57:38;18.10;99.90
43581;DHT22;29175;51.030;4.606;2022-10-24T04:00:05;18.30;99.90
43581;DHT22;29175;51.030;4.606;2022-10-24T04:02:31;18.40;99.90
43581;DHT22;29175;51.030;4.606;2022-10-24T04:04:56;18.20;99.90
43581;DHT22;29175;51.030;4.606;2022-10-24T04:07:22;18.20;99.90
43581;DHT22;29175;51.030;4.606;2022-10-24T04:09:48;18.40;99.90
43581;DHT22;29175;51.030;4.606;2022-10-24T04:12:14;18.10;99.90
43581;DHT22;29175;51.030;4.606;2022-10-24T04:14:40;18.10;99.90
43581;DHT22;29175;51.030;4.606;2022-10-24T04:17:06;18.40;99.90
43581;DHT22;29175;51.030;4.606;2022-10-24T04:19:32;18.40;99.90
43581;DHT22;29175;51.030;4.606;2022-10-24T04:21:59;18.30;99.90
43581;DHT22;29175;51.030;4.606;2022-10-24T04:24:26;18.30;99.90
43581;DHT22;29175;51.030;4.606;2022-10-24T04:26:52;18.40;99.90
43581;DHT22;29175;51.030;4.606;2022-10-24T04:29:18;18.30;99.90
43581;DHT22;29175;51.030;4.606;2022-10-24T04:31:44;18.50;99.90
43581;DHT22;29175;51.030;4.606;2022-10-24T04:34:11;18.50;99.90
43581;DHT22;29175;51.030;4.606;2022-10-24T04:36:37;18.30;99.90
43581;DHT22;29175;51.030;4.606;2022-10-24T04:39:02;18.30;99.90
43581;DHT22;29175;51.030;4.606;2022-10-24T04:41:28;18.40;99.90
43581;DHT22;29175;51.030;4.606;2022-10-24T04:43:54;18.00;99.90
43581;DHT22;29175;51.030;4.606;2022-10-24T04:46:20;18.10;99.90
43581;DHT22;29175;51.030;4.606;2022-10-24T04:48:45;18.20;99.90
43581;DHT22;29175;51.030;4.606;2022-10-24T04:51:11;17.90;99.90
43581;DHT22;29175;51.030;4.606;2022-10-24T04:53:37;18.10;99.90
43581;DHT22;29175;51.030;4.606;2022-10-24T04:56:03;18.30;99.90
43581;DHT22;29175;51.030;4.606;2022-10-24T04:58:29;18.40;99.90
43581;DHT22;29175;51.030;4.606;2022-10-24T05:00:55;18.60;99.90
43581;DHT22;29175;51.030;4.606;2022-10-24T05:03:23;18.50;99.90
43581;DHT22;29175;51.030;4.606;2022-10-24T05:05:48;18.50;99.90
43581;DHT22;29175;51.030;4.606;2022-10-24T05:08:15;18.50;99.90
43581;DHT22;29175;51.030;4.606;2022-10-24T05:10:41;18.00;99.90
43581;DHT22;29175;51.030;4.606;2022-10-24T05:13:06;18.00;99.90
43581;DHT22;29175;51.030;4.606;2022-10-24T05:15:32;18.20;99.90
43581;DHT22;29175;51.030;4.606;2022-10-24T05:17:58;18.00;99.90
43581;DHT22;29175;51.030;4.606;2022-10-24T05:20:25;17.90;99.90
43581;DHT22;29175;51.030;4.606;2022-10-24T05:22:51;17.90;99.90
43581;DHT22;29175;51.030;4.606;2022-10-24T05:25:17;18.20;99.90
43581;DHT22;29175;51.030;4.606;2022-10-24T05:27:44;17.90;99.90
43581;DHT22;29175;51.030;4.606;2022-10-24T05:30:10;17.90;99.90
43581;DHT22;29175;51.030;4.606;2022-10-24T05:32:36;18.10;99.90
43581;DHT22;29175;51.030;4.606;2022-10-24T05:35:04;17.90;99.90
43581;DHT22;29175;51.030;4.606;2022-10-24T05:37:30;18.00;99.90
43581;DHT22;29175;51.030;4.606;2022-10-24T05:39:57;18.00;99.90
43581;DHT22;29175;51.030;4.606;2022-10-24T05:42:23;18.10;99.90
43581;DHT22;29175;51.030;4.606;2022-10-24T05:44:48;18.40;99.90
43581;DHT22;29175;51.030;4.606;2022-10-24T05:47:15;18.40;99.90
43581;DHT22;29175;51.030;4.606;2022-10-24T05:49:42;18.20;99.90
43581;DHT22;29175;51.030;4.606;2022-10-24T05:52:07;18.00;99.90
43581;DHT22;29175;51.030;4.606;2022-10-24T05:54:33;18.00;99.90
43581;DHT22;29175;51.030;4.606;2022-10-24T05:56:59;17.90;99.90
43581;DHT22;29175;51.030;4.606;2022-10-24T05:59:27;17.70;99.90
43581;DHT22;29175;51.030;4.606;2022-10-24T06:01:53;17.40;99.90
43581;DHT22;29175;51.030;4.606;2022-10-24T06:04:19;17.40;99.90
43581;DHT22;29175;51.030;4.606;2022-10-24T06:06:45;17.40;99.90
43581;DHT22;29175;51.030;4.606;2022-10-24T06:09:11;17.50;99.90
43581;DHT22;29175;51.030;4.606;2022-10-24T06:11:37;17.40;99.90
43581;DHT22;29175;51.030;4.606;2022-10-24T06:14:03;17.60;99.90
43581;DHT22;29175;51.030;4.606;2022-10-24T06:16:31;17.80;99.90
43581;DHT22;29175;51.030;4.606;2022-10-24T06:18:58;17.80;99.90
43581;DHT22;29175;51.030;4.606;2022-10-24T06:21:24;17.80;99.90
43581;DHT22;29175;51.030;4.606;2022-10-24T06:23:50;17.60;99.90
43581;DHT22;29175;51.030;4.606;2022-10-24T06:26:17;17.50;99.90
43581;DHT22;29175;51.030;4.606;2022-10-24T06:28:44;17.60;99.90
43581;DHT22;29175;51.030;4.606;2022-10-24T06:31:11;17.90;99.90
43581;DHT22;29175;51.030;4.606;2022-10-24T06:33:39;17.80;99.90
43581;DHT22;29175;51.030;4.606;2022-10-24T06:36:06;18.00;99.90
43581;DHT22;29175;51.030;4.606;2022-10-24T06:38:36;17.90;99.90
43581;DHT22;29175;51.030;4.606;2022-10-24T06:41:10;17.90;99.90
43581;DHT22;29175;51.030;4.606;2022-10-24T06:43:36;17.60;99.90
43581;DHT22;29175;51.030;4.606;2022-10-24T06:46:07;17.70;99.90
43581;DHT22;29175;51.030;4.606;2022-10-24T06:48:35;17.40;99.90
43581;DHT22;29175;51.030;4.606;2022-10-24T06:51:01;17.10;99.90
43581;DHT22;29175;51.030;4.606;2022-10-24T06:53:26;16.90;99.90
43581;DHT22;29175;51.030;4.606;2022-10-24T06:55:53;16.60;99.90
43581;DHT22;29175;51.030;4.606;2022-10-24T06:58:18;16.90;99.90
43581;DHT22;29175;51.030;4.606;2022-10-24T07:00:44;16.80;99.90
43581;DHT22;29175;51.030;4.606;2022-10-24T07:03:14;16.70;99.90
43581;DHT22;29175;51.030;4.606;2022-10-24T07:05:40;16.60;99.90
43581;DHT22;29175;51.030;4.606;2022-10-24T07:08:06;16.70;99.90
43581;DHT22;29175;51.030;4.606;2022-10-24T07:10:32;16.70;99.90
43581;DHT22;29175;51.030;4.606;2022-10-24T07:12:57;16.60;99.90
43581;DHT22;29175;51.030;4.606;2022-10-24T07:15:23;16.40;99.90
43581;DHT22;29175;51.030;4.606;2022-10-24T07:17:49;16.60;99.90
43581;DHT22;29175;51.030;4.606;2022-10-24T07:20:15;16.70;99.90
43581;DHT22;29175;51.030;4.606;2022-10-24T07:22:41;16.70;99.90
43581;DHT22;29175;51.030;4.606;2022-10-24T07:25:08;17.00;99.90
43581;DHT22;29175;51.030;4.606;2022-10-24T07:27:33;16.90;99.90
43581;DHT22;29175;51.030;4.606;2022-10-24T07:29:59;17.00;99.90
43581;DHT22;29175;51.030;4.606;2022-10-24T07:32:25;17.10;99.90
43581;DHT22;29175;51.030;4.606;2022-10-24T07:34:50;17.20;99.90
43581;DHT22;29175;51.030;4.606;2022-10-24T07:37:17;17.20;99.90
43581;DHT22;29175;51.030;4.606;2022-10-24T07:39:44;17.10;99.90
43581;DHT22;29175;51.030;4.606;2022-10-24T07:42:14;17.20;99.90
43581;DHT22;29175;51.030;4.606;2022-10-24T07:44:41;17.00;99.90
43581;DHT22;29175;51.030;4.606;2022-10-24T07:47:08;17.20;99.90
43581;DHT22;29175;51.030;4.606;2022-10-24T07:49:35;17.20;99.90
43581;DHT22;29175;51.030;4.606;2022-10-24T07:52:01;17.20;99.90
43581;DHT22;29175;51.030;4.606;2022-10-24T07:54:26;17.30;99.90
43581;DHT22;29175;51.030;4.606;2022-10-24T07:56:53;17.60;99.90
43581;DHT22;29175;51.030;4.606;2022-10-24T07:59:19;17.80;99.90
43581;DHT22;29175;51.030;4.606;2022-10-24T08:01:44;17.60;99.90
43581;DHT22;29175;51.030;4.606;2022-10-24T08:04:11;17.60;99.90
43581;DHT22;29175;51.030;4.606;2022-10-24T08:06:38;17.60;99.90
43581;DHT22;29175;51.030;4.606;2022-10-24T08:09:05;17.90;99.90
43581;DHT22;29175;51.030;4.606;2022-10-24T08:11:30;18.20;99.90
43581;DHT22;29175;51.030;4.606;2022-10-24T08:13:57;18.20;99.90
43581;DHT22;29175;51.030;4.606;2022-10-24T08:16:24;18.30;99.90
43581;DHT22;29175;51.030;4.606;2022-10-24T08:18:51;18.40;99.90
43581;DHT22;29175;51.030;4.606;2022-10-24T08:21:19;18.40;99.90
43581;DHT22;29175;51.030;4.606;2022-10-24T08:23:46;18.10;99.90
43581;DHT22;29175;51.030;4.606;2022-10-24T08:26:14;18.00;99.90
43581;DHT22;29175;51.030;4.606;2022-10-24T08:28:40;18.10;99.90
43581;DHT22;29175;51.030;4.606;2022-10-24T08:31:08;18.20;99.90
43581;DHT22;29175;51.030;4.606;2022-10-24T08:33:34;18.40;99.90
43581;DHT22;29175;51.030;4.606;2022-10-24T08:36:03;18.30;99.90
43581;DHT22;29175;51.030;4.606;2022-10-24T08:38:29;18.50;99.90
43581;DHT22;29175;51.030;4.606;2022-10-24T08:40:56;18.40;99.90
43581;DHT22;29175;51.030;4.606;2022-10-24T08:43:23;18.20;99.90
43581;DHT22;29175;51.030;4.606;2022-10-24T08:49:32;18.50;99.90
43581;DHT22;29175;51.030;4.606;2022-10-24T08:52:05;18.90;99.90
43581;DHT22;29175;51.030;4.606;2022-10-24T08:54:39;18.70;99.90
43581;DHT22;29175;51.030;4.606;2022-10-24T08:57:16;18.80;99.90
43581;DHT22;29175;51.030;4.606;2022-10-24T08:59:44;19.20;99.90
43581;DHT22;29175;51.030;4.606;2022-10-24T09:02:23;19.30;99.90
43581;DHT22;29175;51.030;4.606;2022-10-24T09:04:57;19.20;99.90
43581;DHT22;29175;51.030;4.606;2022-10-24T09:07:26;19.20;99.90
43581;DHT22;29175;51.030;4.606;2022-10-24T09:10:12;19.40;99.90
43581;DHT22;29175;51.030;4.606;2022-10-24T09:12:41;19.40;99.90
43581;DHT22;29175;51.030;4.606;2022-10-24T09:15:15;19.20;99.90
43581;DHT22;29175;51.030;4.606;2022-10-24T09:17:42;18.80;99.90
43581;DHT22;29175;51.030;4.606;2022-10-24T09:20:27;19.20;99.90
43581;DHT22;29175;51.030;4.606;2022-10-24T09:22:54;19.20;99.90
43581;DHT22;29175;51.030;4.606;2022-10-24T09:25:24;19.10;99.90
43581;DHT22;29175;51.030;4.606;2022-10-24T09:27:50;18.80;99.90
43581;DHT22;29175;51.030;4.606;2022-10-24T09:30:25;18.60;99.90
43581;DHT22;29175;51.030;4.606;2022-10-24T09:32:53;18.80;99.90
43581;DHT22;29175;51.030;4.606;2022-10-24T09:35:30;19.30;99.90
43581;DHT22;29175;51.030;4.606;2022-10-24T09:38:24;19.10;99.90
43581;DHT22;29175;51.030;4.606;2022-10-24T09:40:52;19.00;99.90
43581;DHT22;29175;51.030;4.606;2022-10-24T09:46:11;19.20;99.90
43581;DHT22;29175;51.030;4.606;2022-10-24T09:48:57;19.10;99.90
43581;DHT22;29175;51.030;4.606;2022-10-24T09:51:38;19.30;99.90
43581;DHT22;29175;51.030;4.606;2022-10-24T09:54:28;19.50;99.90
43581;DHT22;29175;51.030;4.606;2022-10-24T09:56:57;18.80;99.90
43581;DHT22;29175;51.030;4.606;2022-10-24T10:02:26;18.90;99.90
43581;DHT22;29175;51.030;4.606;2022-10-24T10:05:14;18.80;99.90
43581;DHT22;29175;51.030;4.606;2022-10-24T10:07:43;19.00;99.90
43581;DHT22;29175;51.030;4.606;2022-10-24T10:10:28;19.30;99.90
43581;DHT22;29175;51.030;4.606;2022-10-24T10:20:44;19.00;99.90
43581;DHT22;29175;51.030;4.606;2022-10-24T10:23:21;19.20;99.90
43581;DHT22;29175;51.030;4.606;2022-10-24T10:25:48;19.50;99.90
43581;DHT22;29175;51.030;4.606;2022-10-24T10:28:22;19.60;99.90
43581;DHT22;29175;51.030;4.606;2022-10-24T10:30:52;19.80;99.90
43581;DHT22;29175;51.030;4.606;2022-10-24T10:41:56;19.70;99.90
43581;DHT22;29175;51.030;4.606;2022-10-24T10:49:40;19.40;99.90
43581;DHT22;29175;51.030;4.606;2022-10-24T10:52:19;19.40;99.90
43581;DHT22;29175;51.030;4.606;2022-10-24T11:00:23;19.60;99.90
43581;DHT22;29175;51.030;4.606;2022-10-24T11:03:08;19.70;99.90
43581;DHT22;29175;51.030;4.606;2022-10-24T11:05:49;19.60;99.90
43581;DHT22;29175;51.030;4.606;2022-10-24T11:08:23;19.70;99.90
43581;DHT22;29175;51.030;4.606;2022-10-24T11:11:03;19.90;99.90
43581;DHT22;29175;51.030;4.606;2022-10-24T11:13:36;19.90;99.90
43581;DHT22;29175;51.030;4.606;2022-10-24T11:16:06;19.90;99.90
43581;DHT22;29175;51.030;4.606;2022-10-24T11:18:41;19.90;99.90
43581;DHT22;29175;51.030;4.606;2022-10-24T11:21:14;19.70;99.90
43581;DHT22;29175;51.030;4.606;2022-10-24T11:37:52;20.10;99.90
43581;DHT22;29175;51.030;4.606;2022-10-24T11:40:22;20.20;99.90
43581;DHT22;29175;51.030;4.606;2022-10-24T11:51:20;20.10;99.90
43581;DHT22;29175;51.030;4.606;2022-10-24T11:54:04;20.00;99.90
43581;DHT22;29175;51.030;4.606;2022-10-24T11:56:43;20.10;99.90
43581;DHT22;29175;51.030;4.606;2022-10-24T11:59:18;19.90;99.90
43581;DHT22;29175;51.030;4.606;2022-10-24T12:18:44;19.50;99.90
43581;DHT22;29175;51.030;4.606;2022-10-24T12:21:19;19.20;99.90
43581;DHT22;29175;51.030;4.606;2022-10-24T12:23:57;19.30;99.90
43581;DHT22;29175;51.030;4.606;2022-10-24T12:26:31;19.40;99.90
43581;DHT22;29175;51.030;4.606;2022-10-24T12:28:58;19.40;99.90
43581;DHT22;29175;51.030;4.606;2022-10-24T12:31:36;20.00;99.90
43581;DHT22;29175;51.030;4.606;2022-10-24T12:37:29;19.90;99.90
43581;DHT22;29175;51.030;4.606;2022-10-24T12:39:55;19.70;99.90
43581;DHT22;29175;51.030;4.606;2022-10-24T12:44:49;19.60;99.90
43581;DHT22;29175;51.030;4.606;2022-10-24T12:47:41;19.50;99.90
43581;DHT22;29175;51.030;4.606;2022-10-24T12:53:00;19.40;99.90
43581;DHT22;29175;51.030;4.606;2022-10-24T12:55:29;19.10;99.90
43581;DHT22;29175;51.030;4.606;2022-10-24T12:57:56;19.00;99.90
43581;DHT22;29175;51.030;4.606;2022-10-24T13:00:25;18.70;99.90
43581;DHT22;29175;51.030;4.606;2022-10-24T13:11:56;19.10;99.90
43581;DHT22;29175;51.030;4.606;2022-10-24T13:19:40;19.20;99.90
43581;DHT22;29175;51.030;4.606;2022-10-24T13:22:26;19.10;99.90
43581;DHT22;29175;51.030;4.606;2022-10-24T13:24:53;19.20;99.90
43581;DHT22;29175;51.030;4.606;2022-10-24T13:27:28;19.10;99.90
43581;DHT22;29175;51.030;4.606;2022-10-24T13:29:58;19.10;99.90
43581;DHT22;29175;51.030;4.606;2022-10-24T13:32:31;19.20;99.90
43581;DHT22;29175;51.030;4.606;2022-10-24T13:34:57;19.40;99.90
43581;DHT22;29175;51.030;4.606;2022-10-24T13:37:31;19.40;99.90
43581;DHT22;29175;51.030;4.606;2022-10-24T13:42:35;19.10;99.90
43581;DHT22;29175;51.030;4.606;2022-10-24T13:45:04;19.30;99.90
43581;DHT22;29175;51.030;4.606;2022-10-24T13:47:41;19.30;99.90
43581;DHT22;29175;51.030;4.606;2022-10-24T13:50:21;19.30;99.90
43581;DHT22;29175;51.030;4.606;2022-10-24T13:52:50;19.30;99.90
43581;DHT22;29175;51.030;4.606;2022-10-24T13:55:42;19.30;99.90
43581;DHT22;29175;51.030;4.606;2022-10-24T13:58:17;19.60;99.90
43581;DHT22;29175;51.030;4.606;2022-10-24T14:01:05;19.40;99.90
43581;DHT22;29175;51.030;4.606;2022-10-24T14:03:32;19.20;99.90
43581;DHT22;29175;51.030;4.606;2022-10-24T14:06:01;19.00;99.90
43581;DHT22;29175;51.030;4.606;2022-10-24T14:08:34;18.90;99.90
43581;DHT22;29175;51.030;4.606;2022-10-24T14:11:03;19.00;99.90
43581;DHT22;29175;51.030;4.606;2022-10-24T14:13:31;19.20;99.90
43581;DHT22;29175;51.030;4.606;2022-10-24T14:16:04;19.40;99.90
43581;DHT22;29175;51.030;4.606;2022-10-24T14:18:31;19.20;99.90
43581;DHT22;29175;51.030;4.606;2022-10-24T14:20:59;19.20;99.90
43581;DHT22;29175;51.030;4.606;2022-10-24T14:26:14;19.60;99.90
43581;DHT22;29175;51.030;4.606;2022-10-24T14:28:47;19.50;99.90
43581;DHT22;29175;51.030;4.606;2022-10-24T14:33:50;19.60;99.90
43581;DHT22;29175;51.030;4.606;2022-10-24T14:36:18;19.70;99.90
43581;DHT22;29175;51.030;4.606;2022-10-24T14:38:50;19.80;99.90
43581;DHT22;29175;51.030;4.606;2022-10-24T14:41:18;19.90;99.90
43581;DHT22;29175;51.030;4.606;2022-10-24T14:43:46;19.60;99.90
43581;DHT22;29175;51.030;4.606;2022-10-24T14:48:40;19.50;99.90
43581;DHT22;29175;51.030;4.606;2022-10-24T14:51:14;19.30;99.90
43581;DHT22;29175;51.030;4.606;2022-10-24T14:53:44;19.20;99.90
43581;DHT22;29175;51.030;4.606;2022-10-24T14:56:36;19.20;99.90
43581;DHT22;29175;51.030;4.606;2022-10-24T14:59:20;19.40;99.90
43581;DHT22;29175;51.030;4.606;2022-10-24T15:01:58;19.40;99.90
43581;DHT22;29175;51.030;4.606;2022-10-24T15:04:37;19.40;99.90
43581;DHT22;29175;51.030;4.606;2022-10-24T15:09:54;19.60;99.90
43581;DHT22;29175;51.030;4.606;2022-10-24T15:15:26;19.70;99.90
43581;DHT22;29175;51.030;4.606;2022-10-24T15:17:58;19.80;99.90
43581;DHT22;29175;51.030;4.606;2022-10-24T15:20:35;19.90;99.90
43581;DHT22;29175;51.030;4.606;2022-10-24T15:23:05;19.60;99.90
43581;DHT22;29175;51.030;4.606;2022-10-24T15:25:34;19.50;99.90
43581;DHT22;29175;51.030;4.606;2022-10-24T15:28:04;19.40;99.90
43581;DHT22;29175;51.030;4.606;2022-10-24T15:32:59;19.20;99.90
43581;DHT22;29175;51.030;4.606;2022-10-24T15:35:27;19.50;99.90
43581;DHT22;29175;51.030;4.606;2022-10-24T15:37:57;19.60;99.90
43581;DHT22;29175;51.030;4.606;2022-10-24T15:40:30;19.50;99.90
43581;DHT22;29175;51.030;4.606;2022-10-24T15:42:56;19.70;99.90
43581;DHT22;29175;51.030;4.606;2022-10-24T15:45:22;19.60;99.90
43581;DHT22;29175;51.030;4.606;2022-10-24T15:47:49;19.10;99.90
43581;DHT22;29175;51.030;4.606;2022-10-24T15:50:19;19.30;99.90
43581;DHT22;29175;51.030;4.606;2022-10-24T15:52:51;19.00;99.90
43581;DHT22;29175;51.030;4.606;2022-10-24T15:55:27;18.80;99.90
43581;DHT22;29175;51.030;4.606;2022-10-24T15:57:54;18.80;99.90
43581;DHT22;29175;51.030;4.606;2022-10-24T16:00:22;18.70;99.90
43581;DHT22;29175;51.030;4.606;2022-10-24T16:02:50;18.80;99.90
43581;DHT22;29175;51.030;4.606;2022-10-24T16:05:22;18.60;99.90
43581;DHT22;29175;51.030;4.606;2022-10-24T16:07:49;18.70;99.90
43581;DHT22;29175;51.030;4.606;2022-10-24T16:10:17;18.80;99.90
43581;DHT22;29175;51.030;4.606;2022-10-24T16:12:45;18.80;99.90
43581;DHT22;29175;51.030;4.606;2022-10-24T16:15:19;18.50;99.90
43581;DHT22;29175;51.030;4.606;2022-10-24T16:17:45;18.40;99.90
43581;DHT22;29175;51.030;4.606;2022-10-24T16:20:11;18.60;99.90
43581;DHT22;29175;51.030;4.606;2022-10-24T16:22:37;18.50;99.90
43581;DHT22;29175;51.030;4.606;2022-10-24T16:25:03;18.40;99.90
43581;DHT22;29175;51.030;4.606;2022-10-24T16:27:29;18.20;99.90
43581;DHT22;29175;51.030;4.606;2022-10-24T16:29:55;18.20;99.90
43581;DHT22;29175;51.030;4.606;2022-10-24T16:32:20;18.20;99.90
43581;DHT22;29175;51.030;4.606;2022-10-24T16:34:46;18.20;99.90
43581;DHT22;29175;51.030;4.606;2022-10-24T16:37:14;18.10;99.90
43581;DHT22;29175;51.030;4.606;2022-10-24T16:39:41;18.10;99.90
43581;DHT22;29175;51.030;4.606;2022-10-24T16:42:07;18.00;99.90
43581;DHT22;29175;51.030;4.606;2022-10-24T16:44:33;18.00;99.90
43581;DHT22;29175;51.030;4.606;2022-10-24T16:47:05;17.80;99.90
43581;DHT22;29175;51.030;4.606;2022-10-24T16:49:31;17.60;99.90
43581;DHT22;29175;51.030;4.606;2022-10-24T16:51:57;17.80;99.90
43581;DHT22;29175;51.030;4.606;2022-10-24T16:54:22;18.00;99.90
43581;DHT22;29175;51.030;4.606;2022-10-24T16:56:49;17.90;99.90
43581;DHT22;29175;51.030;4.606;2022-10-24T16:59:16;17.80;99.90
43581;DHT22;29175;51.030;4.606;2022-10-24T17:01:42;17.80;99.90
43581;DHT22;29175;51.030;4.606;2022-10-24T17:04:07;17.90;99.90
43581;DHT22;29175;51.030;4.606;2022-10-24T17:06:33;18.00;99.90
43581;DHT22;29175;51.030;4.606;2022-10-24T17:08:59;17.90;99.90
43581;DHT22;29175;51.030;4.606;2022-10-24T17:11:25;17.90;99.90
43581;DHT22;29175;51.030;4.606;2022-10-24T17:13:51;18.00;99.90
43581;DHT22;29175;51.030;4.606;2022-10-24T17:16:16;18.10;99.90
43581;DHT22;29175;51.030;4.606;2022-10-24T17:18:42;18.00;99.90
43581;DHT22;29175;51.030;4.606;2022-10-24T17:21:08;18.00;99.90
43581;DHT22;29175;51.030;4.606;2022-10-24T17:23:34;18.10;99.90
43581;DHT22;29175;51.030;4.606;2022-10-24T17:26:00;18.20;99.90
43581;DHT22;29175;51.030;4.606;2022-10-24T17:28:27;18.20;99.90
43581;DHT22;29175;51.030;4.606;2022-10-24T17:30:52;18.20;99.90
43581;DHT22;29175;51.030;4.606;2022-10-24T17:33:19;18.20;99.90
43581;DHT22;29175;51.030;4.606;2022-10-24T17:35:49;18.30;99.90
43581;DHT22;29175;51.030;4.606;2022-10-24T17:38:31;18.40;99.90
43581;DHT22;29175;51.030;4.606;2022-10-24T17:41:16;18.10;99.90
43581;DHT22;29175;51.030;4.606;2022-10-24T17:43:46;17.80;99.90
43581;DHT22;29175;51.030;4.606;2022-10-24T17:46:12;17.60;99.90
43581;DHT22;29175;51.030;4.606;2022-10-24T17:48:39;17.40;99.90
43581;DHT22;29175;51.030;4.606;2022-10-24T17:51:07;17.00;99.90
43581;DHT22;29175;51.030;4.606;2022-10-24T17:53:35;16.80;99.90
43581;DHT22;29175;51.030;4.606;2022-10-24T17:56:00;16.70;99.90
43581;DHT22;29175;51.030;4.606;2022-10-24T17:58:26;16.50;99.90
43581;DHT22;29175;51.030;4.606;2022-10-24T18:00:52;16.40;99.90
43581;DHT22;29175;51.030;4.606;2022-10-24T18:03:19;16.40;99.90
43581;DHT22;29175;51.030;4.606;2022-10-24T18:05:45;16.40;99.90
43581;DHT22;29175;51.030;4.606;2022-10-24T18:08:11;16.40;99.90